This is the latest recevied weather packets stored in our database for station/object AD8BV. If no packets are shown the sender has not sent any weather packets the latest 10 day(s).
| Time | Temp. | Humidity | Pressure | Rain* | Wind** | Luminosity | Snow |
|---|---|---|---|---|---|---|---|
| 1777750418 | 9.44° C | 49% | 1018.8 hPa | 0 mm | - | 246 W/m² | - |
| 1777750113 | 8.89° C | 51% | 1018.7 hPa | 0 mm | - | 269 W/m² | - |
| 1777749810 | 8.89° C | 50% | 1018.7 hPa | 0 mm | - | 205 W/m² | - |
| 1777749507 | 8.89° C | 48% | 1018.8 hPa | 0 mm | - | 370 W/m² | - |
| 1777749205 | 9.44° C | 47% | 1018.9 hPa | 0 mm | - | 179 W/m² | - |
| 1777748902 | 9.44° C | 48% | 1019.1 hPa | 0 mm | - | 766 W/m² | - |
| 1777748600 | 8.89° C | 47% | 1019.3 hPa | 0 mm | - | 226 W/m² | - |
| 1777748295 | 8.89° C | 50% | 1019.1 hPa | 0 mm | - | 242 W/m² | - |
| 1777747991 | 8.89° C | 47% | 1019.1 hPa | 0 mm | - | 347 W/m² | - |
| 1777747688 | 8.33° C | 51% | 1019.2 hPa | 0 mm | - | 287 W/m² | - |
| 1777747383 | 8.33° C | 49% | 1019.2 hPa | 0 mm | - | 177 W/m² | - |
| 1777747080 | 8.33° C | 47% | 1019.4 hPa | 0 mm | - | 176 W/m² | - |
| 1777746776 | 9.44° C | 48% | 1019.1 hPa | 0 mm | - | 199 W/m² | - |
| 1777746472 | 10° C | 46% | 1019.3 hPa | 0 mm | - | 560 W/m² | - |
| 1777746168 | 9.44° C | 50% | 1019.4 hPa | 0 mm | - | 514 W/m² | - |
| 1777745864 | 8.89° C | 53% | 1019.1 hPa | 0 mm | - | 637 W/m² | - |
| 1777745563 | 8.33° C | 51% | 1019.4 hPa | 0 mm | - | 298 W/m² | - |
| 1777745260 | 8.89° C | 46% | 1019.1 hPa | 0 mm | - | 213 W/m² | - |
| 1777744958 | 10° C | 43% | 1019.4 hPa | 0 mm | - | 206 W/m² | - |
| 1777744657 | 9.44° C | 46% | 1019.4 hPa | 0 mm | - | 853 W/m² | - |
| 1777744352 | 8.33° C | 52% | 1019.7 hPa | 0 mm | - | 838 W/m² | - |
| 1777744049 | 8.89° C | 46% | 1019.8 hPa | 0 mm | - | 400 W/m² | - |
| 1777743747 | 8.33° C | 51% | 1019.7 hPa | 0 mm | - | 696 W/m² | - |
| 1777743444 | 7.78° C | 50% | 1019.4 hPa | 0 mm | - | 278 W/m² | - |
| 1777743141 | 7.78° C | 48% | 1019.8 hPa | 0 mm | - | 403 W/m² | - |
* Rain latest hour (hover to see other rain measurements)
** Current wind speed in m/s (hover to see current wind gust speed)